createdAt,value
2019-03-15T00:01:45.852Z,29.67
2019-03-15T00:04:15.577Z,30.50
2019-03-15T00:06:45.281Z,32.10
2019-03-15T00:09:14.872Z,29.63
2019-03-15T00:11:44.445Z,32.30
2019-03-15T00:14:14.184Z,30.60
2019-03-15T00:16:43.812Z,40.57
2019-03-15T00:19:13.416Z,30.30
2019-03-15T00:21:43.091Z,31.13
2019-03-15T00:24:12.745Z,38.20
2019-03-15T00:26:42.275Z,46.40
2019-03-15T00:29:11.972Z,47.67
2019-03-15T00:31:41.559Z,39.33
2019-03-15T00:34:11.294Z,48.83
2019-03-15T00:36:40.816Z,39.50
2019-03-15T00:39:10.499Z,36.43
2019-03-15T00:41:40.091Z,33.57
2019-03-15T00:44:09.683Z,36.63
2019-03-15T00:46:39.306Z,33.17
2019-03-15T00:49:08.917Z,32.10
2019-03-15T00:51:38.658Z,29.70
2019-03-15T00:54:08.355Z,35.00
2019-03-15T00:56:37.977Z,31.80
2019-03-15T00:59:07.557Z,36.07
2019-03-15T01:01:37.306Z,36.97
2019-03-15T01:04:09.474Z,30.77
2019-03-15T01:06:38.354Z,35.27
2019-03-15T01:09:07.921Z,32.67
2019-03-15T01:11:37.498Z,32.63
2019-03-15T01:14:07.246Z,34.07
2019-03-15T01:16:36.879Z,31.33
2019-03-15T01:19:06.522Z,28.73
2019-03-15T01:21:36.204Z,23.67
2019-03-15T01:24:05.841Z,29.53
2019-03-15T01:26:35.391Z,31.90
2019-03-15T01:29:04.990Z,29.63
2019-03-15T01:31:34.612Z,26.60
2019-03-15T01:34:04.311Z,28.50
2019-03-15T01:36:33.953Z,31.33
2019-03-15T01:39:03.798Z,30.93
2019-03-15T01:41:33.452Z,28.00
2019-03-15T01:44:03.535Z,29.43
2019-03-15T01:46:33.704Z,36.33
2019-03-15T01:49:03.501Z,34.10
2019-03-15T01:51:33.216Z,31.03
2019-03-15T01:54:02.759Z,34.03
2019-03-15T01:56:32.340Z,33.60
2019-03-15T01:59:01.890Z,38.67
2019-03-15T02:01:31.559Z,35.80
2019-03-15T02:04:01.142Z,39.50
2019-03-15T02:06:30.700Z,30.87
2019-03-15T02:09:00.461Z,36.10
2019-03-15T02:11:30.062Z,37.27
2019-03-15T02:13:59.662Z,32.50
2019-03-15T02:16:29.391Z,37.07
2019-03-15T02:18:59.097Z,51.00
2019-03-15T02:21:28.636Z,43.60
2019-03-15T02:23:58.174Z,34.13
2019-03-15T02:26:27.725Z,33.40
2019-03-15T02:28:57.351Z,37.27
2019-03-15T02:31:26.883Z,32.37
2019-03-15T02:33:56.508Z,33.20
2019-03-15T02:36:26.247Z,32.67
2019-03-15T02:38:55.888Z,31.27
2019-03-15T02:41:25.563Z,34.13
2019-03-15T02:43:55.191Z,37.70
2019-03-15T02:46:25.834Z,37.17
2019-03-15T02:48:55.728Z,30.20
2019-03-15T02:51:25.323Z,32.27
2019-03-15T02:53:54.963Z,34.37
2019-03-15T02:56:24.648Z,34.67
2019-03-15T02:58:54.366Z,37.83
2019-03-15T03:01:24.056Z,37.93
2019-03-15T03:03:53.697Z,38.20
2019-03-15T03:06:23.297Z,37.70
2019-03-15T03:08:52.839Z,32.33
2019-03-15T03:11:22.629Z,38.50
2019-03-15T03:13:53.756Z,34.20
2019-03-15T03:16:23.443Z,35.27
2019-03-15T03:18:53.155Z,40.93
2019-03-15T03:21:22.724Z,34.03
2019-03-15T03:23:52.366Z,35.17
2019-03-15T03:26:21.987Z,39.80
2019-03-15T03:28:51.790Z,38.77
2019-03-15T03:31:21.433Z,41.87
2019-03-15T03:33:51.004Z,43.00
2019-03-15T03:36:20.550Z,51.83
2019-03-15T03:38:50.214Z,41.53
2019-03-15T03:41:19.842Z,38.17
2019-03-15T03:43:49.539Z,41.67
2019-03-15T03:46:19.256Z,41.70
2019-03-15T03:48:49.003Z,48.20
2019-03-15T03:51:18.604Z,43.50
2019-03-15T03:53:48.268Z,43.10
2019-03-15T03:56:17.918Z,51.40
2019-03-15T03:58:47.598Z,52.33
2019-03-15T04:01:17.213Z,51.07
2019-03-15T04:03:46.911Z,46.20
2019-03-15T04:06:16.526Z,55.70
2019-03-15T04:08:46.222Z,57.30
2019-03-15T04:11:15.865Z,49.77
2019-03-15T04:13:45.542Z,44.67
2019-03-15T04:16:15.122Z,48.90
2019-03-15T04:18:44.724Z,52.03
2019-03-15T04:21:14.351Z,53.63
2019-03-15T04:23:44.009Z,46.50
2019-03-15T04:26:13.607Z,44.20
2019-03-15T04:28:43.292Z,42.07
2019-03-15T04:31:12.959Z,36.20
2019-03-15T04:33:42.631Z,33.10
2019-03-15T04:36:12.328Z,37.97
2019-03-15T04:38:41.888Z,40.00
2019-03-15T04:41:11.641Z,42.77
2019-03-15T04:43:41.276Z,44.23
2019-03-15T04:46:10.803Z,46.03
2019-03-15T04:48:40.467Z,41.87
2019-03-15T04:51:10.166Z,44.40
2019-03-15T04:53:39.785Z,42.23
2019-03-15T04:56:09.486Z,48.50
2019-03-15T04:58:39.160Z,56.57
2019-03-15T05:01:08.812Z,47.07
2019-03-15T05:03:38.549Z,41.37
2019-03-15T05:06:08.227Z,49.30
2019-03-15T05:08:37.974Z,77.00
2019-03-15T05:11:07.653Z,67.20
2019-03-15T05:13:37.268Z,48.37
2019-03-15T05:16:07.066Z,55.37
2019-03-15T05:18:36.673Z,51.30
2019-03-15T05:21:06.276Z,52.47
2019-03-15T05:23:35.838Z,54.57
2019-03-15T05:26:05.371Z,48.20
2019-03-15T05:28:35.042Z,44.47
2019-03-15T05:31:04.710Z,46.83
2019-03-15T05:33:34.337Z,52.20
2019-03-15T05:36:03.882Z,54.57
2019-03-15T05:38:35.027Z,52.80
2019-03-15T05:41:04.970Z,51.33
2019-03-15T05:43:34.627Z,46.20
2019-03-15T05:46:04.301Z,50.60
2019-03-15T05:48:33.933Z,41.97
2019-03-15T05:51:03.629Z,45.03
2019-03-15T05:53:33.260Z,52.90
2019-03-15T05:56:02.947Z,51.70
2019-03-15T05:58:32.485Z,50.40
2019-03-15T06:01:02.046Z,48.20
2019-03-15T06:03:31.694Z,46.00
2019-03-15T06:06:01.371Z,47.47
2019-03-15T06:08:31.008Z,43.37
2019-03-15T06:11:00.682Z,45.30
2019-03-15T06:13:30.326Z,44.60
2019-03-15T06:16:00.011Z,41.73
2019-03-15T06:18:29.640Z,44.97
2019-03-15T06:20:59.212Z,50.67
2019-03-15T06:23:28.755Z,45.37
2019-03-15T06:25:58.317Z,47.77
2019-03-15T06:28:27.885Z,44.90
2019-03-15T06:30:57.543Z,37.83
2019-03-15T06:33:28.785Z,44.77
2019-03-15T06:35:58.712Z,41.47
2019-03-15T06:38:28.307Z,43.23
2019-03-15T06:40:57.915Z,38.50
2019-03-15T06:43:27.564Z,46.47
2019-03-15T06:45:57.253Z,46.53
2019-03-15T06:48:26.897Z,44.97
2019-03-15T06:50:56.591Z,42.40
2019-03-15T06:53:26.273Z,41.20
2019-03-15T06:55:56.016Z,51.80
2019-03-15T06:58:25.789Z,50.70
2019-03-15T07:00:55.405Z,55.90
2019-03-15T07:03:25.102Z,44.80
2019-03-15T07:05:54.752Z,47.93
2019-03-15T07:08:24.424Z,46.30
2019-03-15T07:10:53.984Z,41.53
2019-03-15T07:13:23.632Z,42.83
2019-03-15T07:15:53.285Z,44.27
2019-03-15T07:18:22.978Z,41.43
2019-03-15T07:20:52.613Z,45.23
2019-03-15T07:23:22.385Z,37.13
2019-03-15T07:25:51.950Z,43.13
2019-03-15T07:28:21.598Z,37.17
2019-03-15T07:30:51.286Z,39.10
2019-03-15T07:33:20.919Z,36.10
2019-03-15T07:35:50.637Z,40.67
2019-03-15T07:38:20.237Z,38.60
2019-03-15T07:40:49.819Z,36.70
2019-03-15T07:43:20.206Z,40.07
2019-03-15T07:45:49.787Z,32.60
2019-03-15T07:48:22.787Z,34.80
2019-03-15T07:50:50.695Z,36.03
2019-03-15T07:53:20.234Z,36.77
2019-03-15T07:55:49.837Z,39.73
2019-03-15T07:58:19.375Z,39.23
2019-03-15T08:00:49.167Z,35.10
2019-03-15T08:03:18.718Z,30.20
2019-03-15T08:05:48.370Z,33.70
2019-03-15T08:08:17.947Z,40.73
2019-03-15T08:10:47.494Z,50.97
2019-03-15T08:13:17.035Z,20.50
2019-03-15T08:15:46.578Z,61.73
2019-03-15T08:18:16.129Z,20.53
2019-03-15T08:20:45.712Z,50.00
2019-03-15T08:23:15.255Z,20.33
2019-03-15T08:25:44.808Z,24.63
2019-03-15T08:28:14.365Z,27.73
2019-03-15T08:30:43.902Z,37.37
2019-03-15T08:33:13.453Z,32.87
2019-03-15T08:35:43.111Z,20.17
2019-03-15T08:38:12.640Z,23.70
2019-03-15T08:40:42.180Z,35.33
2019-03-15T08:43:11.732Z,21.60
2019-03-15T08:45:41.281Z,15.63
2019-03-15T08:48:10.838Z,55.10
2019-03-15T08:50:40.446Z,29.90
2019-03-15T08:53:09.995Z,16.33
2019-03-15T08:55:40.116Z,20.23
2019-03-15T08:58:15.846Z,26.10
2019-03-15T09:00:41.021Z,18.30
2019-03-15T09:03:10.554Z,13.80
2019-03-15T09:05:40.109Z,21.83
2019-03-15T09:08:09.670Z,60.03
2019-03-15T09:10:39.193Z,37.53
2019-03-15T09:13:08.738Z,14.73
2019-03-15T09:15:38.276Z,14.33
2019-03-15T09:18:07.804Z,30.33
2019-03-15T09:20:37.336Z,38.13
2019-03-15T09:23:06.880Z,25.40
2019-03-15T09:25:36.437Z,22.67
2019-03-15T09:28:05.990Z,17.00
2019-03-15T09:30:35.510Z,10.50
2019-03-15T09:33:05.036Z,17.47
2019-03-15T09:35:34.581Z,13.47
2019-03-15T09:38:04.123Z,15.00
2019-03-15T09:40:33.678Z,30.53
2019-03-15T09:43:03.194Z,22.30
2019-03-15T09:45:32.745Z,196.97
2019-03-15T09:48:02.275Z,33.73
2019-03-15T09:50:36.289Z,32.70
2019-03-15T09:53:05.792Z,55.93
2019-03-15T09:55:34.368Z,23.13
2019-03-15T09:58:03.878Z,17.67
2019-03-15T10:00:33.429Z,14.63
2019-03-15T10:03:02.985Z,20.73
2019-03-15T10:05:32.554Z,17.50
2019-03-15T10:08:02.126Z,13.73
2019-03-15T10:10:31.670Z,27.63
2019-03-15T10:13:06.250Z,12.83
2019-03-15T10:15:32.477Z,12.20
2019-03-15T10:18:02.067Z,34.30
2019-03-15T10:20:31.618Z,19.13
2019-03-15T10:23:06.137Z,12.80
2019-03-15T10:25:45.671Z,13.50
2019-03-15T10:28:03.840Z,18.23
2019-03-15T10:30:33.393Z,9.17
2019-03-15T10:33:03.004Z,21.13
2019-03-15T10:35:32.564Z,23.20
2019-03-15T10:38:02.099Z,49.87
2019-03-15T10:40:31.633Z,12.97
2019-03-15T10:43:01.184Z,18.10
2019-03-15T10:45:30.734Z,25.63
2019-03-15T10:48:00.316Z,11.57
2019-03-15T10:50:29.873Z,11.93
2019-03-15T10:52:59.401Z,25.20
2019-03-15T10:55:28.939Z,10.70
2019-03-15T10:57:58.477Z,11.93
2019-03-15T11:00:28.398Z,12.40
2019-03-15T11:02:57.989Z,32.27
2019-03-15T11:05:27.696Z,33.23
2019-03-15T11:07:57.240Z,20.50
2019-03-15T11:10:26.773Z,41.80
2019-03-15T11:12:56.378Z,19.17
2019-03-15T11:15:25.926Z,22.03
2019-03-15T11:17:55.498Z,23.17
2019-03-15T11:20:25.021Z,22.57
2019-03-15T11:22:54.676Z,11.50
2019-03-15T11:25:24.377Z,26.67
2019-03-15T11:27:53.924Z,13.37
2019-03-15T11:30:23.460Z,14.57
2019-03-15T11:32:52.990Z,11.63
2019-03-15T11:35:22.543Z,15.30
2019-03-15T11:37:52.094Z,15.43
2019-03-15T11:40:21.635Z,15.80
2019-03-15T11:42:51.191Z,19.93
2019-03-15T11:45:20.800Z,14.60
2019-03-15T11:48:03.443Z,235.57
2019-03-15T11:50:21.631Z,19.60
2019-03-15T11:52:51.207Z,21.53
2019-03-15T11:55:20.751Z,21.10
2019-03-15T11:57:50.285Z,25.73
2019-03-15T12:00:19.821Z,35.00
2019-03-15T12:02:49.363Z,16.07
2019-03-15T12:05:18.882Z,11.90
2019-03-15T12:07:48.432Z,22.97
2019-03-15T12:10:18.058Z,22.03
2019-03-15T12:12:47.575Z,9.50
2019-03-15T12:15:17.125Z,28.43
2019-03-15T12:17:46.674Z,8.73
2019-03-15T12:20:16.229Z,11.30
2019-03-15T12:22:45.767Z,23.30
2019-03-15T12:25:15.292Z,23.80
2019-03-15T12:27:44.928Z,13.60
2019-03-15T12:30:14.491Z,10.37
2019-03-15T12:32:44.205Z,21.63
2019-03-15T12:35:13.726Z,15.60
2019-03-15T12:37:43.278Z,21.67
2019-03-15T12:40:12.842Z,15.10
2019-03-15T12:42:42.392Z,9.40
2019-03-15T12:45:11.987Z,13.70
2019-03-15T12:47:41.528Z,23.00
2019-03-15T12:50:11.123Z,12.10
2019-03-15T12:52:47.513Z,19.07
2019-03-15T12:55:12.055Z,19.63
2019-03-15T12:57:41.607Z,15.77
2019-03-15T13:00:13.071Z,224.77
2019-03-15T13:02:42.593Z,40.00
2019-03-15T13:05:12.134Z,24.73
2019-03-15T13:07:41.662Z,16.07
2019-03-15T13:10:12.300Z,101.77
2019-03-15T13:12:41.880Z,26.53
2019-03-15T13:15:12.452Z,30.73
2019-03-15T13:17:41.989Z,11.67
2019-03-15T13:20:11.919Z,18.53
2019-03-15T13:22:41.445Z,28.30
2019-03-15T13:25:11.208Z,20.07
2019-03-15T13:27:40.762Z,20.47
2019-03-15T13:30:10.462Z,30.13
2019-03-15T13:32:39.991Z,19.90
2019-03-15T13:35:09.536Z,38.17
2019-03-15T13:37:42.564Z,32.33
2019-03-15T13:40:10.446Z,21.73
2019-03-15T13:42:40.078Z,19.87
2019-03-15T13:45:10.633Z,28.47
2019-03-15T13:47:40.206Z,20.40
2019-03-15T13:50:10.808Z,35.23
2019-03-15T13:52:40.358Z,21.27
2019-03-15T13:55:09.927Z,22.73
2019-03-15T13:57:39.426Z,24.03
2019-03-15T14:00:10.100Z,36.00
2019-03-15T14:02:39.633Z,27.27
2019-03-15T14:05:09.230Z,34.60
2019-03-15T14:07:38.768Z,18.60
2019-03-15T14:10:09.322Z,37.93
2019-03-15T14:12:38.869Z,37.67
2019-03-15T14:15:09.982Z,12.57
2019-03-15T14:17:39.548Z,27.07
2019-03-15T14:20:10.009Z,12.40
2019-03-15T14:22:39.549Z,20.53
2019-03-15T14:25:10.269Z,14.40
2019-03-15T14:27:39.812Z,14.17
2019-03-15T14:30:10.690Z,36.87
2019-03-15T14:32:40.281Z,20.17
2019-03-15T14:35:10.329Z,15.30
2019-03-15T14:37:40.244Z,14.20
2019-03-15T14:40:09.941Z,12.40
2019-03-15T14:42:39.569Z,18.00
2019-03-15T14:45:09.491Z,22.43
2019-03-15T14:47:39.243Z,12.67
2019-03-15T14:50:08.803Z,14.10
2019-03-15T14:52:38.362Z,18.63
2019-03-15T14:55:08.017Z,17.80
2019-03-15T14:57:50.544Z,17.53
2019-03-15T15:00:11.288Z,16.20
2019-03-15T15:02:40.926Z,13.90
2019-03-15T15:05:11.457Z,12.03
2019-03-15T15:07:41.007Z,25.87
2019-03-15T15:10:11.190Z,41.07
2019-03-15T15:12:40.744Z,24.17
2019-03-15T15:15:11.952Z,25.20
2019-03-15T15:17:41.561Z,29.30
2019-03-15T15:20:11.098Z,31.33
2019-03-15T15:22:40.662Z,59.13
2019-03-15T15:25:10.417Z,42.93
2019-03-15T15:27:39.966Z,42.83
2019-03-15T15:30:09.874Z,29.90
2019-03-15T15:32:39.416Z,23.07
2019-03-15T15:35:09.179Z,29.80
2019-03-15T15:37:38.844Z,20.43
2019-03-15T15:40:09.655Z,35.20
2019-03-15T15:42:39.203Z,28.10
2019-03-15T15:45:08.884Z,43.00
2019-03-15T15:47:38.423Z,47.70
2019-03-15T15:50:08.105Z,35.70
2019-03-15T15:52:37.720Z,89.23
2019-03-15T15:55:07.515Z,70.00
2019-03-15T15:57:37.102Z,110.83
2019-03-15T16:00:07.608Z,91.97
2019-03-15T16:02:37.181Z,139.53
2019-03-15T16:05:08.678Z,96.87
2019-03-15T16:07:38.040Z,72.90
2019-03-15T16:10:08.872Z,74.23
2019-03-15T16:12:38.444Z,85.37
2019-03-15T16:15:08.562Z,50.93
2019-03-15T16:17:38.129Z,65.60
2019-03-15T16:20:08.272Z,59.77
2019-03-15T16:22:37.802Z,79.53
2019-03-15T16:25:07.535Z,76.40
2019-03-15T16:27:37.075Z,119.60
2019-03-15T16:30:07.748Z,94.63
2019-03-15T16:32:37.339Z,57.97
2019-03-15T16:35:08.297Z,70.93
2019-03-15T16:37:37.837Z,62.53
2019-03-15T16:40:07.649Z,72.53
2019-03-15T16:42:37.214Z,98.37
2019-03-15T16:45:08.864Z,156.83
2019-03-15T16:47:38.435Z,229.50
2019-03-15T16:50:08.809Z,132.43
2019-03-15T16:52:38.383Z,102.10
2019-03-15T16:55:08.735Z,100.90
2019-03-15T16:57:38.294Z,163.37
2019-03-15T17:00:08.607Z,158.83
2019-03-15T17:02:38.153Z,152.47
2019-03-15T17:05:07.786Z,214.53
2019-03-15T17:07:37.313Z,308.00
2019-03-15T17:10:07.599Z,181.43
2019-03-15T17:12:37.158Z,167.23
2019-03-15T17:15:07.680Z,127.90
2019-03-15T17:17:37.228Z,192.33
2019-03-15T17:20:07.402Z,264.33
2019-03-15T17:22:36.964Z,278.13
2019-03-15T17:25:07.023Z,178.53
2019-03-15T17:27:36.556Z,156.33
2019-03-15T17:30:07.671Z,155.23
2019-03-15T17:32:37.226Z,158.87
2019-03-15T17:35:07.435Z,121.97
2019-03-15T17:37:36.949Z,236.70
2019-03-15T17:40:07.117Z,290.30
2019-03-15T17:42:36.671Z,346.70
2019-03-15T17:45:06.484Z,289.73
2019-03-15T17:47:36.047Z,176.43
2019-03-15T17:50:06.157Z,170.97
2019-03-15T17:52:35.757Z,160.23
2019-03-15T17:55:05.362Z,149.93
2019-03-15T17:57:34.896Z,167.97
2019-03-15T18:00:13.556Z,279.33
2019-03-15T18:02:43.103Z,175.87
2019-03-15T18:05:12.681Z,101.93
2019-03-15T18:07:42.237Z,254.80
2019-03-15T18:10:11.788Z,178.03
2019-03-15T18:12:41.327Z,105.53
2019-03-15T18:15:11.004Z,106.80
2019-03-15T18:17:40.666Z,86.87
2019-03-15T18:20:10.276Z,91.03
2019-03-15T18:22:39.812Z,76.17
2019-03-15T18:25:09.455Z,68.27
2019-03-15T18:27:39.018Z,67.60
2019-03-15T18:30:09.403Z,95.83
2019-03-15T18:32:39.128Z,80.20
2019-03-15T18:35:08.953Z,80.20
2019-03-15T18:37:38.468Z,104.27
2019-03-15T18:40:09.759Z,124.70
2019-03-15T18:42:39.290Z,185.70
2019-03-15T18:47:37.615Z,89.27
2019-03-15T18:50:08.280Z,118.60
2019-03-15T18:52:37.881Z,177.37
2019-03-15T18:55:10.482Z,169.20
2019-03-15T18:57:40.019Z,154.93
2019-03-15T19:00:12.525Z,227.83
2019-03-15T19:02:42.137Z,226.70
2019-03-15T19:05:11.665Z,293.83
2019-03-15T19:07:41.214Z,83.20
2019-03-15T19:10:10.999Z,140.43
2019-03-15T19:12:40.544Z,131.67
2019-03-15T19:15:11.332Z,105.70
2019-03-15T19:17:40.886Z,81.67
2019-03-15T19:20:10.648Z,175.70
2019-03-15T19:22:40.223Z,128.93
2019-03-15T19:25:09.776Z,77.90
2019-03-15T19:27:39.317Z,61.37
2019-03-15T19:30:09.974Z,48.20
2019-03-15T19:32:39.644Z,62.03
2019-03-15T19:35:09.650Z,51.00
2019-03-15T19:37:39.245Z,58.60
2019-03-15T19:40:10.264Z,88.67
2019-03-15T19:42:39.820Z,69.27
2019-03-15T19:45:11.140Z,57.20
2019-03-15T19:47:40.723Z,67.50
2019-03-15T19:50:12.411Z,50.40
2019-03-15T19:52:41.954Z,54.40
2019-03-15T19:55:12.350Z,54.87
2019-03-15T19:57:42.045Z,42.30
2019-03-15T20:00:13.470Z,50.63
2019-03-15T20:02:43.046Z,49.53
2019-03-15T20:05:12.601Z,39.97
2019-03-15T20:07:42.277Z,66.00
2019-03-15T20:10:16.106Z,58.13
2019-03-15T20:12:44.032Z,48.97
2019-03-15T20:15:13.613Z,36.80
2019-03-15T20:17:43.181Z,31.60
2019-03-15T20:20:12.911Z,29.40
2019-03-15T20:22:42.469Z,30.57
2019-03-15T20:25:12.738Z,26.90
2019-03-15T20:27:42.318Z,23.83
2019-03-15T20:30:21.351Z,31.27
2019-03-15T20:32:53.080Z,19.00
2019-03-15T20:35:22.623Z,20.20
2019-03-15T20:37:52.189Z,19.03
2019-03-15T20:40:21.713Z,17.30
2019-03-15T20:42:51.247Z,21.00
2019-03-15T20:45:20.922Z,10.63
2019-03-15T20:47:50.474Z,16.10
2019-03-15T20:50:20.033Z,14.80
2019-03-15T20:52:49.649Z,17.87
2019-03-15T20:55:19.171Z,19.53
2019-03-15T20:57:49.142Z,19.00
2019-03-15T21:00:18.718Z,11.97
2019-03-15T21:02:48.249Z,26.80
2019-03-15T21:05:17.768Z,28.93
2019-03-15T21:07:47.326Z,20.70
2019-03-15T21:10:16.966Z,15.07
2019-03-15T21:12:46.486Z,17.63
2019-03-15T21:15:16.034Z,20.43
2019-03-15T21:17:45.589Z,11.70
2019-03-15T21:20:15.132Z,15.83
2019-03-15T21:22:44.693Z,13.90
2019-03-15T21:25:14.336Z,13.87
2019-03-15T21:27:53.433Z,15.77
2019-03-15T21:30:15.834Z,17.77
2019-03-15T21:32:45.476Z,11.87
2019-03-15T21:35:15.002Z,16.37
2019-03-15T21:37:44.522Z,12.20
2019-03-15T21:40:14.079Z,14.67
2019-03-15T21:42:43.631Z,11.73
2019-03-15T21:45:13.179Z,14.27
2019-03-15T21:47:42.766Z,16.30
2019-03-15T21:50:13.058Z,11.53
2019-03-15T21:52:42.611Z,10.90
2019-03-15T21:55:12.143Z,11.00
2019-03-15T21:57:41.685Z,27.00
2019-03-15T22:00:12.764Z,28.13
2019-03-15T22:02:42.290Z,34.03
2019-03-15T22:05:11.843Z,47.17
2019-03-15T22:07:41.375Z,51.70
2019-03-15T22:10:11.376Z,32.83
2019-03-15T22:12:40.918Z,34.97
2019-03-15T22:15:10.466Z,27.17
2019-03-15T22:17:40.225Z,17.07
2019-03-15T22:20:10.455Z,13.90
2019-03-15T22:22:40.005Z,9.07
2019-03-15T22:25:09.535Z,12.63
2019-03-15T22:27:39.041Z,7.20
2019-03-15T22:30:08.750Z,8.03
2019-03-15T22:32:38.281Z,9.40
2019-03-15T22:35:07.909Z,10.33
2019-03-15T22:37:37.416Z,10.23
2019-03-15T22:40:07.020Z,14.60
2019-03-15T22:42:36.531Z,11.77
2019-03-15T22:45:06.267Z,16.03
2019-03-15T22:47:35.794Z,11.77
2019-03-15T22:50:05.363Z,15.87
2019-03-15T22:52:34.889Z,13.47
2019-03-15T22:55:04.542Z,7.20
2019-03-15T22:57:34.100Z,15.10
2019-03-15T23:00:03.644Z,10.33
2019-03-15T23:02:33.151Z,10.40
2019-03-15T23:05:02.693Z,8.97
2019-03-15T23:07:32.223Z,9.00
2019-03-15T23:10:01.772Z,9.73
2019-03-15T23:12:31.289Z,10.97
2019-03-15T23:15:00.824Z,9.17
2019-03-15T23:17:30.360Z,12.57
2019-03-15T23:19:59.898Z,6.63
2019-03-15T23:22:29.480Z,9.90
2019-03-15T23:24:59.105Z,9.33
2019-03-15T23:27:28.619Z,5.77
2019-03-15T23:29:58.215Z,11.20
2019-03-15T23:32:27.732Z,6.50
2019-03-15T23:34:57.273Z,7.73
2019-03-15T23:37:26.812Z,8.13
2019-03-15T23:39:56.370Z,10.57
2019-03-15T23:42:25.911Z,10.13
2019-03-15T23:44:55.438Z,7.80
2019-03-15T23:47:25.044Z,12.40
2019-03-15T23:49:54.595Z,8.73
2019-03-15T23:52:24.106Z,9.47
2019-03-15T23:54:53.705Z,8.67
2019-03-15T23:57:23.256Z,8.10
2019-03-15T23:59:52.779Z,10.87
